sensor_id;sensor_type;location;lat;lon;timestamp;P1;durP1;ratioP1;P2;durP2;ratioP2
63201;SDS011;49296;48.188;11.566;2023-03-31T00:02:12;17.17;;;10.63;;
63201;SDS011;49296;48.188;11.566;2023-03-31T00:04:39;15.30;;;9.20;;
63201;SDS011;49296;48.188;11.566;2023-03-31T00:07:10;15.75;;;9.07;;
63201;SDS011;49296;48.188;11.566;2023-03-31T00:09:39;17.70;;;9.60;;
63201;SDS011;49296;48.188;11.566;2023-03-31T00:12:10;15.27;;;8.77;;
63201;SDS011;49296;48.188;11.566;2023-03-31T00:14:37;16.85;;;9.63;;
63201;SDS011;49296;48.188;11.566;2023-03-31T00:17:06;16.13;;;9.68;;
63201;SDS011;49296;48.188;11.566;2023-03-31T00:19:32;14.20;;;9.85;;
63201;SDS011;49296;48.188;11.566;2023-03-31T00:21:59;16.13;;;10.85;;
63201;SDS011;49296;48.188;11.566;2023-03-31T00:24:27;15.68;;;8.73;;
63201;SDS011;49296;48.188;11.566;2023-03-31T00:26:56;15.32;;;9.40;;
63201;SDS011;49296;48.188;11.566;2023-03-31T00:29:23;16.48;;;9.55;;
63201;SDS011;49296;48.188;11.566;2023-03-31T00:31:50;14.20;;;8.50;;
63201;SDS011;49296;48.188;11.566;2023-03-31T00:34:19;14.55;;;9.73;;
63201;SDS011;49296;48.188;11.566;2023-03-31T00:36:46;18.35;;;10.27;;
63201;SDS011;49296;48.188;11.566;2023-03-31T00:39:13;13.27;;;8.52;;
63201;SDS011;49296;48.188;11.566;2023-03-31T00:41:43;16.13;;;9.18;;
63201;SDS011;49296;48.188;11.566;2023-03-31T00:44:11;15.10;;;9.93;;
63201;SDS011;49296;48.188;11.566;2023-03-31T00:46:43;14.20;;;9.25;;
63201;SDS011;49296;48.188;11.566;2023-03-31T00:49:17;13.88;;;8.68;;
63201;SDS011;49296;48.188;11.566;2023-03-31T00:51:50;16.55;;;9.77;;
63201;SDS011;49296;48.188;11.566;2023-03-31T00:54:19;16.08;;;9.73;;
63201;SDS011;49296;48.188;11.566;2023-03-31T00:56:49;14.20;;;9.15;;
63201;SDS011;49296;48.188;11.566;2023-03-31T00:59:19;16.60;;;8.57;;
63201;SDS011;49296;48.188;11.566;2023-03-31T01:01:51;18.13;;;8.98;;
63201;SDS011;49296;48.188;11.566;2023-03-31T01:04:19;14.73;;;9.23;;
63201;SDS011;49296;48.188;11.566;2023-03-31T01:06:50;14.75;;;9.35;;
63201;SDS011;49296;48.188;11.566;2023-03-31T01:09:24;17.83;;;9.60;;
63201;SDS011;49296;48.188;11.566;2023-03-31T01:11:59;16.52;;;9.15;;
63201;SDS011;49296;48.188;11.566;2023-03-31T01:14:28;13.98;;;9.18;;
63201;SDS011;49296;48.188;11.566;2023-03-31T01:16:56;11.82;;;8.77;;
63201;SDS011;49296;48.188;11.566;2023-03-31T01:19:25;17.75;;;10.45;;
63201;SDS011;49296;48.188;11.566;2023-03-31T01:25:34;16.55;;;8.70;;
63201;SDS011;49296;48.188;11.566;2023-03-31T01:28:23;18.65;;;10.85;;
63201;SDS011;49296;48.188;11.566;2023-03-31T01:43:13;15.05;;;9.15;;
63201;SDS011;49296;48.188;11.566;2023-03-31T01:45:47;15.30;;;9.25;;
63201;SDS011;49296;48.188;11.566;2023-03-31T01:48:23;13.20;;;8.20;;
63201;SDS011;49296;48.188;11.566;2023-03-31T01:50:58;13.57;;;8.40;;
63201;SDS011;49296;48.188;11.566;2023-03-31T01:53:30;14.80;;;8.38;;
63201;SDS011;49296;48.188;11.566;2023-03-31T01:56:03;14.60;;;8.40;;
63201;SDS011;49296;48.188;11.566;2023-03-31T01:58:34;12.85;;;8.20;;
63201;SDS011;49296;48.188;11.566;2023-03-31T02:01:05;12.25;;;8.35;;
63201;SDS011;49296;48.188;11.566;2023-03-31T02:03:39;12.90;;;7.35;;
63201;SDS011;49296;48.188;11.566;2023-03-31T02:06:11;12.57;;;8.60;;
63201;SDS011;49296;48.188;11.566;2023-03-31T02:08:43;14.18;;;7.10;;
63201;SDS011;49296;48.188;11.566;2023-03-31T02:11:14;13.30;;;6.65;;
63201;SDS011;49296;48.188;11.566;2023-03-31T02:13:42;12.05;;;7.13;;
63201;SDS011;49296;48.188;11.566;2023-03-31T02:16:12;10.93;;;7.10;;
63201;SDS011;49296;48.188;11.566;2023-03-31T02:18:43;10.10;;;6.95;;
63201;SDS011;49296;48.188;11.566;2023-03-31T02:21:12;12.23;;;7.32;;
63201;SDS011;49296;48.188;11.566;2023-03-31T02:23:40;11.90;;;8.32;;
63201;SDS011;49296;48.188;11.566;2023-03-31T02:26:11;10.25;;;7.35;;
63201;SDS011;49296;48.188;11.566;2023-03-31T02:28:41;13.00;;;7.32;;
63201;SDS011;49296;48.188;11.566;2023-03-31T02:31:12;12.25;;;7.85;;
63201;SDS011;49296;48.188;11.566;2023-03-31T02:33:48;11.38;;;8.85;;
63201;SDS011;49296;48.188;11.566;2023-03-31T02:36:16;11.13;;;7.80;;
63201;SDS011;49296;48.188;11.566;2023-03-31T02:38:45;13.65;;;8.10;;
63201;SDS011;49296;48.188;11.566;2023-03-31T02:41:17;14.73;;;9.02;;
63201;SDS011;49296;48.188;11.566;2023-03-31T02:43:44;13.73;;;8.57;;
63201;SDS011;49296;48.188;11.566;2023-03-31T02:46:11;12.88;;;9.07;;
63201;SDS011;49296;48.188;11.566;2023-03-31T02:48:38;14.80;;;10.02;;
63201;SDS011;49296;48.188;11.566;2023-03-31T02:51:18;13.95;;;8.85;;
63201;SDS011;49296;48.188;11.566;2023-03-31T02:57:07;12.30;;;7.65;;
63201;SDS011;49296;48.188;11.566;2023-03-31T02:59:47;11.82;;;7.60;;
63201;SDS011;49296;48.188;11.566;2023-03-31T03:02:26;14.05;;;6.85;;
63201;SDS011;49296;48.188;11.566;2023-03-31T03:05:06;12.75;;;8.25;;
63201;SDS011;49296;48.188;11.566;2023-03-31T03:07:41;12.95;;;7.65;;
63201;SDS011;49296;48.188;11.566;2023-03-31T03:10:16;11.05;;;7.72;;
63201;SDS011;49296;48.188;11.566;2023-03-31T03:12:52;13.77;;;8.38;;
63201;SDS011;49296;48.188;11.566;2023-03-31T03:15:24;13.32;;;8.10;;
63201;SDS011;49296;48.188;11.566;2023-03-31T03:17:56;12.50;;;7.65;;
63201;SDS011;49296;48.188;11.566;2023-03-31T03:20:24;12.05;;;7.25;;
63201;SDS011;49296;48.188;11.566;2023-03-31T03:22:51;14.15;;;6.38;;
63201;SDS011;49296;48.188;11.566;2023-03-31T03:25:18;11.95;;;5.55;;
63201;SDS011;49296;48.188;11.566;2023-03-31T03:27:45;12.98;;;6.20;;
63201;SDS011;49296;48.188;11.566;2023-03-31T03:30:13;11.63;;;5.93;;
63201;SDS011;49296;48.188;11.566;2023-03-31T03:32:40;12.40;;;6.40;;
63201;SDS011;49296;48.188;11.566;2023-03-31T03:35:07;9.18;;;5.97;;
63201;SDS011;49296;48.188;11.566;2023-03-31T03:37:35;11.27;;;6.32;;
63201;SDS011;49296;48.188;11.566;2023-03-31T03:40:02;9.73;;;5.75;;
63201;SDS011;49296;48.188;11.566;2023-03-31T03:42:30;11.98;;;6.40;;
63201;SDS011;49296;48.188;11.566;2023-03-31T03:44:57;10.82;;;5.97;;
63201;SDS011;49296;48.188;11.566;2023-03-31T03:47:25;11.80;;;6.13;;
63201;SDS011;49296;48.188;11.566;2023-03-31T03:49:52;13.90;;;6.40;;
63201;SDS011;49296;48.188;11.566;2023-03-31T03:52:19;12.27;;;6.38;;
63201;SDS011;49296;48.188;11.566;2023-03-31T03:54:46;12.90;;;7.22;;
63201;SDS011;49296;48.188;11.566;2023-03-31T03:57:13;12.93;;;6.75;;
63201;SDS011;49296;48.188;11.566;2023-03-31T03:59:40;11.40;;;5.85;;
63201;SDS011;49296;48.188;11.566;2023-03-31T04:02:07;11.02;;;5.70;;
63201;SDS011;49296;48.188;11.566;2023-03-31T04:04:35;13.35;;;6.80;;
63201;SDS011;49296;48.188;11.566;2023-03-31T04:07:02;9.40;;;5.95;;
63201;SDS011;49296;48.188;11.566;2023-03-31T04:09:29;11.75;;;6.32;;
63201;SDS011;49296;48.188;11.566;2023-03-31T04:11:57;10.63;;;6.70;;
63201;SDS011;49296;48.188;11.566;2023-03-31T04:14:23;14.63;;;7.13;;
63201;SDS011;49296;48.188;11.566;2023-03-31T04:16:51;13.65;;;7.60;;
63201;SDS011;49296;48.188;11.566;2023-03-31T04:19:20;15.57;;;8.90;;
63201;SDS011;49296;48.188;11.566;2023-03-31T04:21:51;20.23;;;10.60;;
63201;SDS011;49296;48.188;11.566;2023-03-31T04:24:23;16.02;;;8.88;;
63201;SDS011;49296;48.188;11.566;2023-03-31T04:26:54;13.77;;;8.20;;
63201;SDS011;49296;48.188;11.566;2023-03-31T04:29:21;10.55;;;7.20;;
63201;SDS011;49296;48.188;11.566;2023-03-31T04:31:50;13.82;;;7.90;;
63201;SDS011;49296;48.188;11.566;2023-03-31T04:34:18;15.23;;;9.27;;
63201;SDS011;49296;48.188;11.566;2023-03-31T04:36:52;15.35;;;9.05;;
63201;SDS011;49296;48.188;11.566;2023-03-31T04:39:20;17.05;;;9.00;;
63201;SDS011;49296;48.188;11.566;2023-03-31T04:41:50;16.92;;;10.00;;
63201;SDS011;49296;48.188;11.566;2023-03-31T04:44:18;14.85;;;10.02;;
63201;SDS011;49296;48.188;11.566;2023-03-31T04:46:44;18.42;;;10.15;;
63201;SDS011;49296;48.188;11.566;2023-03-31T04:49:12;18.10;;;10.52;;
63201;SDS011;49296;48.188;11.566;2023-03-31T04:51:39;14.10;;;9.63;;
63201;SDS011;49296;48.188;11.566;2023-03-31T04:54:07;13.50;;;8.43;;
63201;SDS011;49296;48.188;11.566;2023-03-31T04:56:34;12.88;;;7.47;;
63201;SDS011;49296;48.188;11.566;2023-03-31T04:59:01;14.07;;;8.02;;
63201;SDS011;49296;48.188;11.566;2023-03-31T05:01:28;14.75;;;8.55;;
63201;SDS011;49296;48.188;11.566;2023-03-31T05:03:57;15.80;;;9.23;;
63201;SDS011;49296;48.188;11.566;2023-03-31T05:06:24;14.05;;;9.07;;
63201;SDS011;49296;48.188;11.566;2023-03-31T05:08:51;11.38;;;7.65;;
63201;SDS011;49296;48.188;11.566;2023-03-31T05:11:19;15.60;;;9.20;;
63201;SDS011;49296;48.188;11.566;2023-03-31T05:13:47;12.80;;;7.25;;
63201;SDS011;49296;48.188;11.566;2023-03-31T05:16:13;14.05;;;7.40;;
63201;SDS011;49296;48.188;11.566;2023-03-31T05:18:41;15.25;;;7.45;;
63201;SDS011;49296;48.188;11.566;2023-03-31T05:21:11;10.60;;;7.82;;
63201;SDS011;49296;48.188;11.566;2023-03-31T05:23:39;11.48;;;7.43;;
63201;SDS011;49296;48.188;11.566;2023-03-31T05:26:07;11.93;;;7.68;;
63201;SDS011;49296;48.188;11.566;2023-03-31T05:28:36;13.02;;;7.22;;
63201;SDS011;49296;48.188;11.566;2023-03-31T05:31:03;10.40;;;7.57;;
63201;SDS011;49296;48.188;11.566;2023-03-31T05:33:32;16.60;;;8.07;;
63201;SDS011;49296;48.188;11.566;2023-03-31T05:35:58;12.52;;;7.68;;
63201;SDS011;49296;48.188;11.566;2023-03-31T05:38:25;12.00;;;7.43;;
63201;SDS011;49296;48.188;11.566;2023-03-31T05:40:55;17.83;;;8.50;;
63201;SDS011;49296;48.188;11.566;2023-03-31T05:43:29;15.15;;;8.25;;
63201;SDS011;49296;48.188;11.566;2023-03-31T05:45:57;13.70;;;8.48;;
63201;SDS011;49296;48.188;11.566;2023-03-31T05:48:24;12.77;;;7.70;;
63201;SDS011;49296;48.188;11.566;2023-03-31T05:50:50;13.93;;;7.82;;
63201;SDS011;49296;48.188;11.566;2023-03-31T05:53:21;13.70;;;9.55;;
63201;SDS011;49296;48.188;11.566;2023-03-31T05:55:47;12.60;;;7.70;;
63201;SDS011;49296;48.188;11.566;2023-03-31T05:58:14;14.45;;;8.00;;
63201;SDS011;49296;48.188;11.566;2023-03-31T06:00:40;14.07;;;7.85;;
63201;SDS011;49296;48.188;11.566;2023-03-31T06:03:11;12.95;;;8.30;;
63201;SDS011;49296;48.188;11.566;2023-03-31T06:05:38;13.23;;;8.30;;
63201;SDS011;49296;48.188;11.566;2023-03-31T06:08:05;14.20;;;8.57;;
63201;SDS011;49296;48.188;11.566;2023-03-31T06:10:32;9.95;;;7.28;;
63201;SDS011;49296;48.188;11.566;2023-03-31T06:13:00;14.40;;;8.27;;
63201;SDS011;49296;48.188;11.566;2023-03-31T06:15:26;14.30;;;8.82;;
63201;SDS011;49296;48.188;11.566;2023-03-31T06:17:53;15.30;;;8.68;;
63201;SDS011;49296;48.188;11.566;2023-03-31T06:20:21;13.10;;;8.25;;
63201;SDS011;49296;48.188;11.566;2023-03-31T06:22:47;13.52;;;8.85;;
63201;SDS011;49296;48.188;11.566;2023-03-31T06:25:14;15.27;;;8.32;;
63201;SDS011;49296;48.188;11.566;2023-03-31T06:27:41;13.52;;;8.48;;
63201;SDS011;49296;48.188;11.566;2023-03-31T06:30:08;13.40;;;8.35;;
63201;SDS011;49296;48.188;11.566;2023-03-31T06:32:35;14.48;;;8.93;;
63201;SDS011;49296;48.188;11.566;2023-03-31T06:35:02;14.43;;;8.93;;
63201;SDS011;49296;48.188;11.566;2023-03-31T06:37:30;14.57;;;8.60;;
63201;SDS011;49296;48.188;11.566;2023-03-31T06:39:56;15.18;;;8.32;;
63201;SDS011;49296;48.188;11.566;2023-03-31T06:42:23;15.23;;;8.80;;
63201;SDS011;49296;48.188;11.566;2023-03-31T06:44:49;15.32;;;9.55;;
63201;SDS011;49296;48.188;11.566;2023-03-31T06:47:16;18.15;;;10.30;;
63201;SDS011;49296;48.188;11.566;2023-03-31T06:49:43;14.18;;;8.98;;
63201;SDS011;49296;48.188;11.566;2023-03-31T06:52:09;14.35;;;9.23;;
63201;SDS011;49296;48.188;11.566;2023-03-31T06:54:37;13.93;;;8.35;;
63201;SDS011;49296;48.188;11.566;2023-03-31T06:57:04;14.00;;;8.10;;
63201;SDS011;49296;48.188;11.566;2023-03-31T06:59:30;12.68;;;7.70;;
63201;SDS011;49296;48.188;11.566;2023-03-31T07:01:57;12.40;;;8.52;;
63201;SDS011;49296;48.188;11.566;2023-03-31T07:04:24;12.77;;;7.95;;
63201;SDS011;49296;48.188;11.566;2023-03-31T07:06:50;14.13;;;7.57;;
63201;SDS011;49296;48.188;11.566;2023-03-31T07:09:17;12.43;;;7.82;;
63201;SDS011;49296;48.188;11.566;2023-03-31T07:11:47;14.95;;;7.97;;
63201;SDS011;49296;48.188;11.566;2023-03-31T07:14:13;12.18;;;7.78;;
63201;SDS011;49296;48.188;11.566;2023-03-31T07:16:40;11.93;;;7.15;;
63201;SDS011;49296;48.188;11.566;2023-03-31T07:19:07;12.80;;;7.35;;
63201;SDS011;49296;48.188;11.566;2023-03-31T07:21:35;14.38;;;7.50;;
63201;SDS011;49296;48.188;11.566;2023-03-31T07:24:01;12.30;;;7.60;;
63201;SDS011;49296;48.188;11.566;2023-03-31T07:26:28;10.73;;;7.28;;
63201;SDS011;49296;48.188;11.566;2023-03-31T07:28:56;13.30;;;7.55;;
63201;SDS011;49296;48.188;11.566;2023-03-31T07:31:23;13.45;;;7.50;;
63201;SDS011;49296;48.188;11.566;2023-03-31T07:33:50;13.25;;;8.60;;
63201;SDS011;49296;48.188;11.566;2023-03-31T07:36:16;12.90;;;7.30;;
63201;SDS011;49296;48.188;11.566;2023-03-31T07:38:44;12.57;;;7.75;;
63201;SDS011;49296;48.188;11.566;2023-03-31T07:41:13;13.75;;;8.35;;
63201;SDS011;49296;48.188;11.566;2023-03-31T07:43:41;12.68;;;8.15;;
63201;SDS011;49296;48.188;11.566;2023-03-31T07:46:14;16.35;;;8.30;;
63201;SDS011;49296;48.188;11.566;2023-03-31T07:48:42;15.00;;;9.13;;
63201;SDS011;49296;48.188;11.566;2023-03-31T07:51:10;12.48;;;9.23;;
63201;SDS011;49296;48.188;11.566;2023-03-31T07:53:37;14.60;;;8.55;;
63201;SDS011;49296;48.188;11.566;2023-03-31T07:56:04;13.50;;;7.35;;
63201;SDS011;49296;48.188;11.566;2023-03-31T07:58:31;14.63;;;9.10;;
63201;SDS011;49296;48.188;11.566;2023-03-31T08:00:57;16.17;;;8.75;;
63201;SDS011;49296;48.188;11.566;2023-03-31T08:03:26;16.40;;;8.30;;
63201;SDS011;49296;48.188;11.566;2023-03-31T08:05:53;14.38;;;7.88;;
63201;SDS011;49296;48.188;11.566;2023-03-31T08:08:20;12.98;;;7.85;;
63201;SDS011;49296;48.188;11.566;2023-03-31T08:10:47;14.30;;;9.13;;
63201;SDS011;49296;48.188;11.566;2023-03-31T08:13:14;14.15;;;7.82;;
63201;SDS011;49296;48.188;11.566;2023-03-31T08:15:40;13.13;;;8.02;;
63201;SDS011;49296;48.188;11.566;2023-03-31T08:18:07;16.02;;;8.25;;
63201;SDS011;49296;48.188;11.566;2023-03-31T08:20:35;14.73;;;8.82;;
63201;SDS011;49296;48.188;11.566;2023-03-31T08:23:03;12.88;;;8.23;;
63201;SDS011;49296;48.188;11.566;2023-03-31T08:25:33;14.07;;;9.07;;
63201;SDS011;49296;48.188;11.566;2023-03-31T08:27:59;13.00;;;7.65;;
63201;SDS011;49296;48.188;11.566;2023-03-31T08:30:26;13.82;;;7.82;;
63201;SDS011;49296;48.188;11.566;2023-03-31T08:32:53;12.93;;;8.20;;
63201;SDS011;49296;48.188;11.566;2023-03-31T08:35:19;11.45;;;7.72;;
63201;SDS011;49296;48.188;11.566;2023-03-31T08:37:47;12.90;;;8.27;;
63201;SDS011;49296;48.188;11.566;2023-03-31T08:40:15;15.02;;;8.55;;
63201;SDS011;49296;48.188;11.566;2023-03-31T08:42:47;13.13;;;8.05;;
63201;SDS011;49296;48.188;11.566;2023-03-31T08:45:16;14.02;;;7.72;;
63201;SDS011;49296;48.188;11.566;2023-03-31T08:47:45;13.95;;;7.35;;
63201;SDS011;49296;48.188;11.566;2023-03-31T08:50:16;11.55;;;7.53;;
63201;SDS011;49296;48.188;11.566;2023-03-31T08:55:19;9.52;;;6.40;;
63201;SDS011;49296;48.188;11.566;2023-03-31T08:57:52;11.35;;;5.93;;
63201;SDS011;49296;48.188;11.566;2023-03-31T09:00:23;9.00;;;6.22;;
63201;SDS011;49296;48.188;11.566;2023-03-31T09:02:52;9.95;;;5.25;;
63201;SDS011;49296;48.188;11.566;2023-03-31T09:05:34;9.95;;;5.53;;
63201;SDS011;49296;48.188;11.566;2023-03-31T09:08:12;8.38;;;4.82;;
63201;SDS011;49296;48.188;11.566;2023-03-31T09:10:48;8.68;;;4.65;;
63201;SDS011;49296;48.188;11.566;2023-03-31T09:13:33;6.88;;;5.07;;
63201;SDS011;49296;48.188;11.566;2023-03-31T09:16:22;7.47;;;4.72;;
63201;SDS011;49296;48.188;11.566;2023-03-31T09:18:51;6.70;;;4.57;;
63201;SDS011;49296;48.188;11.566;2023-03-31T09:21:21;6.60;;;3.95;;
63201;SDS011;49296;48.188;11.566;2023-03-31T09:23:54;9.82;;;4.68;;
63201;SDS011;49296;48.188;11.566;2023-03-31T09:26:24;8.05;;;4.97;;
63201;SDS011;49296;48.188;11.566;2023-03-31T09:28:56;10.23;;;4.57;;
63201;SDS011;49296;48.188;11.566;2023-03-31T09:31:25;8.25;;;4.57;;
63201;SDS011;49296;48.188;11.566;2023-03-31T09:33:53;8.30;;;4.20;;
63201;SDS011;49296;48.188;11.566;2023-03-31T09:36:25;6.82;;;4.00;;
63201;SDS011;49296;48.188;11.566;2023-03-31T09:38:54;9.70;;;4.78;;
63201;SDS011;49296;48.188;11.566;2023-03-31T09:41:20;7.75;;;3.85;;
63201;SDS011;49296;48.188;11.566;2023-03-31T09:43:47;6.45;;;3.90;;
63201;SDS011;49296;48.188;11.566;2023-03-31T09:46:16;8.00;;;3.78;;
63201;SDS011;49296;48.188;11.566;2023-03-31T09:51:17;6.43;;;3.42;;
63201;SDS011;49296;48.188;11.566;2023-03-31T09:53:50;5.70;;;3.28;;
63201;SDS011;49296;48.188;11.566;2023-03-31T09:56:32;5.57;;;3.45;;
63201;SDS011;49296;48.188;11.566;2023-03-31T09:59:12;6.20;;;2.92;;
63201;SDS011;49296;48.188;11.566;2023-03-31T10:01:40;6.72;;;3.67;;
63201;SDS011;49296;48.188;11.566;2023-03-31T10:04:09;5.38;;;3.20;;
63201;SDS011;49296;48.188;11.566;2023-03-31T10:06:44;5.00;;;3.05;;
63201;SDS011;49296;48.188;11.566;2023-03-31T10:09:14;5.65;;;2.60;;
63201;SDS011;49296;48.188;11.566;2023-03-31T10:11:50;7.00;;;3.45;;
63201;SDS011;49296;48.188;11.566;2023-03-31T10:14:23;5.75;;;3.15;;
63201;SDS011;49296;48.188;11.566;2023-03-31T10:16:52;6.05;;;3.20;;
63201;SDS011;49296;48.188;11.566;2023-03-31T10:19:22;6.18;;;3.22;;
63201;SDS011;49296;48.188;11.566;2023-03-31T10:21:54;7.88;;;3.38;;
63201;SDS011;49296;48.188;11.566;2023-03-31T10:24:24;8.50;;;3.10;;
63201;SDS011;49296;48.188;11.566;2023-03-31T10:26:52;7.07;;;3.40;;
63201;SDS011;49296;48.188;11.566;2023-03-31T10:29:21;5.65;;;3.25;;
63201;SDS011;49296;48.188;11.566;2023-03-31T10:31:53;7.38;;;2.88;;
63201;SDS011;49296;48.188;11.566;2023-03-31T10:34:20;7.50;;;3.50;;
63201;SDS011;49296;48.188;11.566;2023-03-31T10:36:48;5.05;;;2.90;;
63201;SDS011;49296;48.188;11.566;2023-03-31T10:39:17;7.22;;;3.40;;
63201;SDS011;49296;48.188;11.566;2023-03-31T10:41:49;7.20;;;3.67;;
63201;SDS011;49296;48.188;11.566;2023-03-31T10:44:30;6.03;;;3.67;;
63201;SDS011;49296;48.188;11.566;2023-03-31T10:47:03;8.02;;;3.58;;
63201;SDS011;49296;48.188;11.566;2023-03-31T10:49:36;8.95;;;4.43;;
63201;SDS011;49296;48.188;11.566;2023-03-31T10:52:08;7.38;;;3.95;;
63201;SDS011;49296;48.188;11.566;2023-03-31T10:54:45;7.30;;;3.90;;
63201;SDS011;49296;48.188;11.566;2023-03-31T10:57:14;6.57;;;4.15;;
63201;SDS011;49296;48.188;11.566;2023-03-31T10:59:45;10.07;;;4.55;;
63201;SDS011;49296;48.188;11.566;2023-03-31T11:02:39;9.00;;;3.65;;
63201;SDS011;49296;48.188;11.566;2023-03-31T11:05:27;11.85;;;4.68;;
63201;SDS011;49296;48.188;11.566;2023-03-31T11:08:01;9.15;;;4.90;;
63201;SDS011;49296;48.188;11.566;2023-03-31T11:10:47;6.38;;;4.20;;
63201;SDS011;49296;48.188;11.566;2023-03-31T11:13:27;7.93;;;4.28;;
63201;SDS011;49296;48.188;11.566;2023-03-31T11:16:03;7.90;;;4.55;;
63201;SDS011;49296;48.188;11.566;2023-03-31T11:18:40;8.35;;;3.78;;
63201;SDS011;49296;48.188;11.566;2023-03-31T11:21:20;6.65;;;4.13;;
63201;SDS011;49296;48.188;11.566;2023-03-31T11:23:57;8.38;;;4.03;;
63201;SDS011;49296;48.188;11.566;2023-03-31T11:26:34;7.75;;;2.83;;
63201;SDS011;49296;48.188;11.566;2023-03-31T11:29:18;7.28;;;2.40;;
63201;SDS011;49296;48.188;11.566;2023-03-31T11:31:54;4.10;;;1.60;;
63201;SDS011;49296;48.188;11.566;2023-03-31T11:37:24;3.10;;;1.52;;
63201;SDS011;49296;48.188;11.566;2023-03-31T11:40:13;4.70;;;1.80;;
63201;SDS011;49296;48.188;11.566;2023-03-31T11:42:54;12.50;;;3.45;;
63201;SDS011;49296;48.188;11.566;2023-03-31T11:45:27;3.88;;;1.45;;
63201;SDS011;49296;48.188;11.566;2023-03-31T11:47:58;3.30;;;2.05;;
63201;SDS011;49296;48.188;11.566;2023-03-31T11:50:29;3.05;;;1.67;;
63201;SDS011;49296;48.188;11.566;2023-03-31T11:52:59;3.92;;;1.90;;
63201;SDS011;49296;48.188;11.566;2023-03-31T11:55:30;4.50;;;1.73;;
63201;SDS011;49296;48.188;11.566;2023-03-31T11:57:59;4.25;;;2.15;;
63201;SDS011;49296;48.188;11.566;2023-03-31T12:00:31;4.40;;;1.80;;
63201;SDS011;49296;48.188;11.566;2023-03-31T12:03:03;3.40;;;1.83;;
63201;SDS011;49296;48.188;11.566;2023-03-31T12:05:37;4.78;;;1.95;;
63201;SDS011;49296;48.188;11.566;2023-03-31T12:10:38;5.03;;;2.05;;
63201;SDS011;49296;48.188;11.566;2023-03-31T12:13:26;4.65;;;1.70;;
63201;SDS011;49296;48.188;11.566;2023-03-31T12:16:03;5.72;;;1.80;;
63201;SDS011;49296;48.188;11.566;2023-03-31T12:18:35;4.55;;;1.70;;
63201;SDS011;49296;48.188;11.566;2023-03-31T12:21:06;4.55;;;1.70;;
63201;SDS011;49296;48.188;11.566;2023-03-31T12:23:37;3.00;;;1.42;;
63201;SDS011;49296;48.188;11.566;2023-03-31T12:26:10;3.88;;;1.75;;
63201;SDS011;49296;48.188;11.566;2023-03-31T12:28:44;6.15;;;2.38;;
63201;SDS011;49296;48.188;11.566;2023-03-31T12:31:15;5.88;;;2.55;;
63201;SDS011;49296;48.188;11.566;2023-03-31T12:33:45;4.32;;;1.70;;
63201;SDS011;49296;48.188;11.566;2023-03-31T12:36:22;3.83;;;1.80;;
63201;SDS011;49296;48.188;11.566;2023-03-31T12:39:01;4.13;;;2.28;;
63201;SDS011;49296;48.188;11.566;2023-03-31T12:41:38;4.35;;;2.03;;
63201;SDS011;49296;48.188;11.566;2023-03-31T12:47:20;4.47;;;2.03;;
63201;SDS011;49296;48.188;11.566;2023-03-31T12:53:13;5.53;;;1.80;;
63201;SDS011;49296;48.188;11.566;2023-03-31T12:55:46;3.75;;;1.70;;
63201;SDS011;49296;48.188;11.566;2023-03-31T12:58:35;4.40;;;2.10;;
63201;SDS011;49296;48.188;11.566;2023-03-31T13:01:05;5.07;;;2.35;;
63201;SDS011;49296;48.188;11.566;2023-03-31T13:03:37;4.45;;;1.98;;
63201;SDS011;49296;48.188;11.566;2023-03-31T13:06:08;6.32;;;2.78;;
63201;SDS011;49296;48.188;11.566;2023-03-31T13:08:50;7.18;;;2.33;;
63201;SDS011;49296;48.188;11.566;2023-03-31T13:11:19;4.97;;;2.80;;
63201;SDS011;49296;48.188;11.566;2023-03-31T13:13:54;5.20;;;2.00;;
63201;SDS011;49296;48.188;11.566;2023-03-31T13:16:24;6.47;;;2.30;;
63201;SDS011;49296;48.188;11.566;2023-03-31T13:18:53;3.55;;;1.13;;
63201;SDS011;49296;48.188;11.566;2023-03-31T13:21:21;3.38;;;1.20;;
63201;SDS011;49296;48.188;11.566;2023-03-31T13:23:49;3.25;;;1.02;;
63201;SDS011;49296;48.188;11.566;2023-03-31T13:26:38;2.28;;;0.90;;
63201;SDS011;49296;48.188;11.566;2023-03-31T13:29:15;3.20;;;1.23;;
63201;SDS011;49296;48.188;11.566;2023-03-31T13:32:04;2.75;;;1.02;;
63201;SDS011;49296;48.188;11.566;2023-03-31T13:34:37;4.13;;;1.00;;
63201;SDS011;49296;48.188;11.566;2023-03-31T13:37:10;5.88;;;1.00;;
63201;SDS011;49296;48.188;11.566;2023-03-31T13:39:55;2.45;;;1.13;;
63201;SDS011;49296;48.188;11.566;2023-03-31T13:42:57;5.47;;;1.10;;
63201;SDS011;49296;48.188;11.566;2023-03-31T13:51:16;3.50;;;1.40;;
63201;SDS011;49296;48.188;11.566;2023-03-31T13:56:59;5.40;;;1.10;;
63201;SDS011;49296;48.188;11.566;2023-03-31T13:59:57;5.35;;;1.33;;
63201;SDS011;49296;48.188;11.566;2023-03-31T14:02:56;3.03;;;0.98;;
63201;SDS011;49296;48.188;11.566;2023-03-31T14:05:41;2.83;;;0.80;;
63201;SDS011;49296;48.188;11.566;2023-03-31T14:08:13;2.70;;;0.70;;
63201;SDS011;49296;48.188;11.566;2023-03-31T14:10:44;3.05;;;0.73;;
63201;SDS011;49296;48.188;11.566;2023-03-31T14:13:12;2.90;;;0.80;;
63201;SDS011;49296;48.188;11.566;2023-03-31T14:15:40;2.53;;;1.10;;
63201;SDS011;49296;48.188;11.566;2023-03-31T14:18:13;2.83;;;0.90;;
63201;SDS011;49296;48.188;11.566;2023-03-31T14:20:45;3.53;;;0.93;;
63201;SDS011;49296;48.188;11.566;2023-03-31T14:23:32;2.50;;;0.80;;
63201;SDS011;49296;48.188;11.566;2023-03-31T14:26:09;2.03;;;0.80;;
63201;SDS011;49296;48.188;11.566;2023-03-31T14:28:49;3.00;;;1.27;;
63201;SDS011;49296;48.188;11.566;2023-03-31T14:31:25;2.60;;;0.85;;
63201;SDS011;49296;48.188;11.566;2023-03-31T14:34:05;3.05;;;1.00;;
63201;SDS011;49296;48.188;11.566;2023-03-31T14:36:44;4.53;;;0.80;;
63201;SDS011;49296;48.188;11.566;2023-03-31T14:39:24;3.45;;;1.17;;
63201;SDS011;49296;48.188;11.566;2023-03-31T14:41:53;3.20;;;0.90;;
63201;SDS011;49296;48.188;11.566;2023-03-31T14:44:22;4.80;;;1.20;;
63201;SDS011;49296;48.188;11.566;2023-03-31T14:46:50;5.97;;;2.10;;
63201;SDS011;49296;48.188;11.566;2023-03-31T14:49:18;4.70;;;1.30;;
63201;SDS011;49296;48.188;11.566;2023-03-31T14:51:47;2.70;;;1.33;;
63201;SDS011;49296;48.188;11.566;2023-03-31T14:54:15;2.30;;;0.88;;
63201;SDS011;49296;48.188;11.566;2023-03-31T14:56:44;4.93;;;1.02;;
63201;SDS011;49296;48.188;11.566;2023-03-31T14:59:15;3.13;;;0.90;;
63201;SDS011;49296;48.188;11.566;2023-03-31T15:01:45;3.60;;;1.13;;
63201;SDS011;49296;48.188;11.566;2023-03-31T15:04:15;2.63;;;0.70;;
63201;SDS011;49296;48.188;11.566;2023-03-31T15:06:45;2.40;;;0.77;;
63201;SDS011;49296;48.188;11.566;2023-03-31T15:09:15;2.65;;;0.80;;
63201;SDS011;49296;48.188;11.566;2023-03-31T15:11:46;2.17;;;0.80;;
63201;SDS011;49296;48.188;11.566;2023-03-31T15:14:18;1.10;;;0.65;;
63201;SDS011;49296;48.188;11.566;2023-03-31T15:16:45;5.60;;;1.00;;
63201;SDS011;49296;48.188;11.566;2023-03-31T15:19:13;3.70;;;0.98;;
63201;SDS011;49296;48.188;11.566;2023-03-31T15:21:42;3.20;;;1.00;;
63201;SDS011;49296;48.188;11.566;2023-03-31T15:24:10;2.03;;;0.80;;
63201;SDS011;49296;48.188;11.566;2023-03-31T15:26:38;2.58;;;0.80;;
63201;SDS011;49296;48.188;11.566;2023-03-31T15:29:14;4.25;;;1.05;;
63201;SDS011;49296;48.188;11.566;2023-03-31T15:31:45;2.08;;;0.95;;
63201;SDS011;49296;48.188;11.566;2023-03-31T15:34:18;3.65;;;0.90;;